sensor_id;sensor_type;location;lat;lon;timestamp;P1;durP1;ratioP1;P2;durP2;ratioP2
22606;SDS011;11470;20.968;105.834;2022-07-23T00:04:03;58.05;;;33.88;;
22606;SDS011;11470;20.968;105.834;2022-07-23T00:09:09;61.93;;;37.40;;
22606;SDS011;11470;20.968;105.834;2022-07-23T00:19:19;66.05;;;36.22;;
22606;SDS011;11470;20.968;105.834;2022-07-23T00:24:24;63.50;;;36.77;;
22606;SDS011;11470;20.968;105.834;2022-07-23T00:29:29;71.95;;;39.90;;
22606;SDS011;11470;20.968;105.834;2022-07-23T00:34:35;65.10;;;36.70;;
22606;SDS011;11470;20.968;105.834;2022-07-23T00:39:41;60.92;;;33.38;;
22606;SDS011;11470;20.968;105.834;2022-07-23T00:44:46;56.83;;;30.35;;
22606;SDS011;11470;20.968;105.834;2022-07-23T00:49:52;48.75;;;30.67;;
22606;SDS011;11470;20.968;105.834;2022-07-23T00:54:58;55.47;;;34.00;;
22606;SDS011;11470;20.968;105.834;2022-07-23T01:00:04;56.28;;;33.78;;
22606;SDS011;11470;20.968;105.834;2022-07-23T01:05:11;58.10;;;35.53;;
22606;SDS011;11470;20.968;105.834;2022-07-23T01:15:39;60.03;;;35.90;;
22606;SDS011;11470;20.968;105.834;2022-07-23T01:20:44;49.25;;;31.05;;
22606;SDS011;11470;20.968;105.834;2022-07-23T01:25:53;45.42;;;26.13;;
22606;SDS011;11470;20.968;105.834;2022-07-23T01:31:01;56.00;;;31.65;;
22606;SDS011;11470;20.968;105.834;2022-07-23T01:36:10;52.97;;;33.28;;
22606;SDS011;11470;20.968;105.834;2022-07-23T01:41:16;54.83;;;33.92;;
22606;SDS011;11470;20.968;105.834;2022-07-23T01:46:25;58.15;;;33.53;;
22606;SDS011;11470;20.968;105.834;2022-07-23T01:51:31;41.38;;;27.73;;
22606;SDS011;11470;20.968;105.834;2022-07-23T01:56:41;48.63;;;31.08;;
22606;SDS011;11470;20.968;105.834;2022-07-23T02:01:47;39.83;;;26.30;;
22606;SDS011;11470;20.968;105.834;2022-07-23T02:06:54;44.33;;;28.10;;
22606;SDS011;11470;20.968;105.834;2022-07-23T02:12:01;52.50;;;32.20;;
22606;SDS011;11470;20.968;105.834;2022-07-23T02:17:06;42.28;;;25.92;;
22606;SDS011;11470;20.968;105.834;2022-07-23T02:22:12;48.90;;;31.15;;
22606;SDS011;11470;20.968;105.834;2022-07-23T02:27:17;47.67;;;27.92;;
22606;SDS011;11470;20.968;105.834;2022-07-23T02:32:23;47.08;;;27.90;;
22606;SDS011;11470;20.968;105.834;2022-07-23T02:37:28;51.85;;;30.02;;
22606;SDS011;11470;20.968;105.834;2022-07-23T02:47:43;38.38;;;23.92;;
22606;SDS011;11470;20.968;105.834;2022-07-23T02:52:49;46.22;;;30.15;;
22606;SDS011;11470;20.968;105.834;2022-07-23T02:58:02;48.97;;;31.20;;
22606;SDS011;11470;20.968;105.834;2022-07-23T03:03:48;40.70;;;26.55;;
22606;SDS011;11470;20.968;105.834;2022-07-23T03:08:55;46.90;;;31.30;;
22606;SDS011;11470;20.968;105.834;2022-07-23T03:19:06;43.50;;;27.60;;
22606;SDS011;11470;20.968;105.834;2022-07-23T03:24:17;47.40;;;31.17;;
22606;SDS011;11470;20.968;105.834;2022-07-23T03:29:24;46.45;;;29.77;;
22606;SDS011;11470;20.968;105.834;2022-07-23T03:39:35;40.97;;;27.33;;
22606;SDS011;11470;20.968;105.834;2022-07-23T03:44:41;38.22;;;28.60;;
22606;SDS011;11470;20.968;105.834;2022-07-23T03:49:47;39.47;;;26.52;;
22606;SDS011;11470;20.968;105.834;2022-07-23T03:54:53;34.10;;;23.88;;
22606;SDS011;11470;20.968;105.834;2022-07-23T03:59:59;29.60;;;21.23;;
22606;SDS011;11470;20.968;105.834;2022-07-23T04:05:14;38.92;;;27.35;;
22606;SDS011;11470;20.968;105.834;2022-07-23T04:10:23;35.63;;;24.45;;
22606;SDS011;11470;20.968;105.834;2022-07-23T04:20:34;40.50;;;27.48;;
22606;SDS011;11470;20.968;105.834;2022-07-23T04:25:44;35.15;;;24.40;;
22606;SDS011;11470;20.968;105.834;2022-07-23T04:30:49;36.53;;;25.80;;
22606;SDS011;11470;20.968;105.834;2022-07-23T04:35:56;32.75;;;24.65;;
22606;SDS011;11470;20.968;105.834;2022-07-23T04:41:02;32.85;;;22.63;;
22606;SDS011;11470;20.968;105.834;2022-07-23T04:46:08;30.33;;;19.75;;
22606;SDS011;11470;20.968;105.834;2022-07-23T04:51:21;27.55;;;20.52;;
22606;SDS011;11470;20.968;105.834;2022-07-23T04:56:27;27.15;;;18.88;;
22606;SDS011;11470;20.968;105.834;2022-07-23T05:01:32;28.33;;;21.08;;
22606;SDS011;11470;20.968;105.834;2022-07-23T05:06:38;26.88;;;19.05;;
22606;SDS011;11470;20.968;105.834;2022-07-23T05:11:43;29.08;;;20.60;;
22606;SDS011;11470;20.968;105.834;2022-07-23T05:16:49;26.42;;;20.40;;
22606;SDS011;11470;20.968;105.834;2022-07-23T05:22:00;33.90;;;23.40;;
22606;SDS011;11470;20.968;105.834;2022-07-23T05:27:06;26.92;;;18.95;;
22606;SDS011;11470;20.968;105.834;2022-07-23T05:32:11;24.73;;;18.40;;
22606;SDS011;11470;20.968;105.834;2022-07-23T05:37:24;23.48;;;16.70;;
22606;SDS011;11470;20.968;105.834;2022-07-23T05:47:42;18.45;;;10.52;;
22606;SDS011;11470;20.968;105.834;2022-07-23T05:52:56;22.38;;;16.33;;
22606;SDS011;11470;20.968;105.834;2022-07-23T05:58:02;24.17;;;17.10;;
22606;SDS011;11470;20.968;105.834;2022-07-23T06:03:08;23.92;;;15.88;;
22606;SDS011;11470;20.968;105.834;2022-07-23T06:08:14;24.10;;;16.10;;
22606;SDS011;11470;20.968;105.834;2022-07-23T06:13:20;22.25;;;13.93;;
22606;SDS011;11470;20.968;105.834;2022-07-23T06:18:26;20.70;;;15.50;;
22606;SDS011;11470;20.968;105.834;2022-07-23T06:23:32;23.60;;;15.10;;
22606;SDS011;11470;20.968;105.834;2022-07-23T06:28:37;23.95;;;16.70;;
22606;SDS011;11470;20.968;105.834;2022-07-23T06:33:42;18.17;;;14.32;;
22606;SDS011;11470;20.968;105.834;2022-07-23T06:43:53;26.00;;;18.65;;
22606;SDS011;11470;20.968;105.834;2022-07-23T06:49:06;18.95;;;14.82;;
22606;SDS011;11470;20.968;105.834;2022-07-23T06:54:12;23.83;;;16.83;;
22606;SDS011;11470;20.968;105.834;2022-07-23T06:59:17;26.02;;;18.42;;
22606;SDS011;11470;20.968;105.834;2022-07-23T07:04:23;23.52;;;16.58;;
22606;SDS011;11470;20.968;105.834;2022-07-23T07:09:28;24.02;;;18.27;;
22606;SDS011;11470;20.968;105.834;2022-07-23T07:19:39;21.80;;;14.77;;
22606;SDS011;11470;20.968;105.834;2022-07-23T07:24:45;13.40;;;9.63;;
22606;SDS011;11470;20.968;105.834;2022-07-23T07:29:50;15.70;;;12.07;;
22606;SDS011;11470;20.968;105.834;2022-07-23T07:34:56;14.77;;;11.02;;
22606;SDS011;11470;20.968;105.834;2022-07-23T07:40:02;17.42;;;13.32;;
22606;SDS011;11470;20.968;105.834;2022-07-23T07:45:08;22.33;;;17.65;;
22606;SDS011;11470;20.968;105.834;2022-07-23T07:50:14;22.45;;;17.48;;
22606;SDS011;11470;20.968;105.834;2022-07-23T07:55:20;20.45;;;15.85;;
22606;SDS011;11470;20.968;105.834;2022-07-23T08:00:26;19.65;;;13.77;;
22606;SDS011;11470;20.968;105.834;2022-07-23T08:05:32;18.42;;;13.93;;
22606;SDS011;11470;20.968;105.834;2022-07-23T08:10:37;25.15;;;14.25;;
22606;SDS011;11470;20.968;105.834;2022-07-23T08:15:43;18.55;;;13.38;;
22606;SDS011;11470;20.968;105.834;2022-07-23T08:20:50;18.05;;;13.38;;
22606;SDS011;11470;20.968;105.834;2022-07-23T08:25:55;18.27;;;12.93;;
22606;SDS011;11470;20.968;105.834;2022-07-23T08:31:01;18.73;;;14.30;;
22606;SDS011;11470;20.968;105.834;2022-07-23T08:36:12;19.17;;;14.90;;
22606;SDS011;11470;20.968;105.834;2022-07-23T08:41:21;21.23;;;14.45;;
22606;SDS011;11470;20.968;105.834;2022-07-23T08:46:26;18.83;;;14.32;;
22606;SDS011;11470;20.968;105.834;2022-07-23T08:51:34;21.30;;;15.18;;
22606;SDS011;11470;20.968;105.834;2022-07-23T08:56:40;18.02;;;15.00;;
22606;SDS011;11470;20.968;105.834;2022-07-23T09:01:50;15.38;;;13.45;;
22606;SDS011;11470;20.968;105.834;2022-07-23T09:06:57;16.17;;;13.10;;
22606;SDS011;11470;20.968;105.834;2022-07-23T09:12:03;17.17;;;12.27;;
22606;SDS011;11470;20.968;105.834;2022-07-23T09:17:11;17.33;;;13.20;;
22606;SDS011;11470;20.968;105.834;2022-07-23T09:22:23;16.58;;;12.35;;
22606;SDS011;11470;20.968;105.834;2022-07-23T09:33:12;16.73;;;14.38;;
22606;SDS011;11470;20.968;105.834;2022-07-23T09:38:29;16.30;;;10.95;;
22606;SDS011;11470;20.968;105.834;2022-07-23T09:43:41;16.23;;;11.15;;
22606;SDS011;11470;20.968;105.834;2022-07-23T09:48:47;13.50;;;11.55;;
22606;SDS011;11470;20.968;105.834;2022-07-23T09:53:53;17.40;;;12.27;;
22606;SDS011;11470;20.968;105.834;2022-07-23T09:58:59;14.73;;;10.40;;
22606;SDS011;11470;20.968;105.834;2022-07-23T10:04:22;13.65;;;10.73;;
22606;SDS011;11470;20.968;105.834;2022-07-23T10:10:05;12.38;;;10.45;;
22606;SDS011;11470;20.968;105.834;2022-07-23T10:15:30;14.25;;;10.68;;
22606;SDS011;11470;20.968;105.834;2022-07-23T10:25:42;14.43;;;11.93;;
22606;SDS011;11470;20.968;105.834;2022-07-23T10:31:01;16.35;;;13.20;;
22606;SDS011;11470;20.968;105.834;2022-07-23T10:41:49;16.87;;;13.17;;
22606;SDS011;11470;20.968;105.834;2022-07-23T10:47:00;12.38;;;10.90;;
22606;SDS011;11470;20.968;105.834;2022-07-23T10:52:27;15.52;;;12.88;;
22606;SDS011;11470;20.968;105.834;2022-07-23T10:57:46;17.98;;;14.50;;
22606;SDS011;11470;20.968;105.834;2022-07-23T11:02:54;19.42;;;12.90;;
22606;SDS011;11470;20.968;105.834;2022-07-23T11:24:08;14.40;;;9.95;;
22606;SDS011;11470;20.968;105.834;2022-07-23T11:34:31;17.03;;;12.87;;
22606;SDS011;11470;20.968;105.834;2022-07-23T11:39:36;14.52;;;12.95;;
22606;SDS011;11470;20.968;105.834;2022-07-23T11:44:42;16.00;;;11.13;;
22606;SDS011;11470;20.968;105.834;2022-07-23T11:49:55;17.55;;;12.35;;
22606;SDS011;11470;20.968;105.834;2022-07-23T11:55:06;14.65;;;10.60;;
22606;SDS011;11470;20.968;105.834;2022-07-23T12:00:20;19.30;;;9.43;;
22606;SDS011;11470;20.968;105.834;2022-07-23T12:05:34;16.05;;;9.60;;
22606;SDS011;11470;20.968;105.834;2022-07-23T12:10:44;15.60;;;10.52;;
22606;SDS011;11470;20.968;105.834;2022-07-23T12:15:54;14.95;;;8.13;;
22606;SDS011;11470;20.968;105.834;2022-07-23T12:21:03;19.08;;;8.02;;
22606;SDS011;11470;20.968;105.834;2022-07-23T12:26:10;10.82;;;7.32;;
22606;SDS011;11470;20.968;105.834;2022-07-23T12:31:16;9.45;;;6.78;;
22606;SDS011;11470;20.968;105.834;2022-07-23T12:36:37;12.23;;;7.47;;
22606;SDS011;11470;20.968;105.834;2022-07-23T12:41:53;11.65;;;7.72;;
22606;SDS011;11470;20.968;105.834;2022-07-23T12:47:04;12.18;;;6.93;;
22606;SDS011;11470;20.968;105.834;2022-07-23T12:52:16;14.38;;;7.40;;
22606;SDS011;11470;20.968;105.834;2022-07-23T12:57:44;13.73;;;6.88;;
22606;SDS011;11470;20.968;105.834;2022-07-23T13:02:52;12.77;;;7.00;;
22606;SDS011;11470;20.968;105.834;2022-07-23T13:07:58;9.18;;;7.45;;
22606;SDS011;11470;20.968;105.834;2022-07-23T13:13:12;15.15;;;7.30;;
22606;SDS011;11470;20.968;105.834;2022-07-23T13:18:18;15.10;;;7.20;;
22606;SDS011;11470;20.968;105.834;2022-07-23T13:23:24;14.20;;;8.00;;
22606;SDS011;11470;20.968;105.834;2022-07-23T13:28:31;14.55;;;7.45;;
22606;SDS011;11470;20.968;105.834;2022-07-23T13:33:36;16.30;;;8.50;;
22606;SDS011;11470;20.968;105.834;2022-07-23T13:38:45;12.05;;;5.25;;
22606;SDS011;11470;20.968;105.834;2022-07-23T13:43:51;17.67;;;7.78;;
22606;SDS011;11470;20.968;105.834;2022-07-23T13:54:03;10.80;;;6.22;;
22606;SDS011;11470;20.968;105.834;2022-07-23T13:59:10;15.35;;;6.60;;
22606;SDS011;11470;20.968;105.834;2022-07-23T14:04:15;11.35;;;5.78;;
22606;SDS011;11470;20.968;105.834;2022-07-23T14:09:21;9.30;;;5.65;;
22606;SDS011;11470;20.968;105.834;2022-07-23T14:14:27;16.05;;;5.90;;
22606;SDS011;11470;20.968;105.834;2022-07-23T14:19:32;9.40;;;5.53;;
22606;SDS011;11470;20.968;105.834;2022-07-23T14:24:39;10.02;;;6.03;;
22606;SDS011;11470;20.968;105.834;2022-07-23T14:29:44;10.32;;;5.95;;
22606;SDS011;11470;20.968;105.834;2022-07-23T14:34:50;9.57;;;5.47;;
22606;SDS011;11470;20.968;105.834;2022-07-23T14:40:00;8.88;;;5.30;;
22606;SDS011;11470;20.968;105.834;2022-07-23T14:45:06;13.00;;;6.03;;
22606;SDS011;11470;20.968;105.834;2022-07-23T14:50:12;8.32;;;5.20;;
22606;SDS011;11470;20.968;105.834;2022-07-23T14:55:19;9.65;;;4.70;;
22606;SDS011;11470;20.968;105.834;2022-07-23T15:00:25;5.90;;;4.32;;
22606;SDS011;11470;20.968;105.834;2022-07-23T15:05:31;9.27;;;4.65;;
22606;SDS011;11470;20.968;105.834;2022-07-23T15:10:37;7.07;;;4.32;;
22606;SDS011;11470;20.968;105.834;2022-07-23T15:15:43;6.90;;;3.83;;
22606;SDS011;11470;20.968;105.834;2022-07-23T15:20:57;8.95;;;4.57;;
22606;SDS011;11470;20.968;105.834;2022-07-23T15:26:03;5.22;;;3.38;;
22606;SDS011;11470;20.968;105.834;2022-07-23T15:31:08;8.50;;;3.63;;
22606;SDS011;11470;20.968;105.834;2022-07-23T15:36:16;4.80;;;2.75;;
22606;SDS011;11470;20.968;105.834;2022-07-23T15:41:23;7.03;;;4.10;;
22606;SDS011;11470;20.968;105.834;2022-07-23T15:51:33;8.48;;;3.58;;
22606;SDS011;11470;20.968;105.834;2022-07-23T15:56:38;7.93;;;4.20;;
22606;SDS011;11470;20.968;105.834;2022-07-23T16:01:45;7.68;;;3.08;;
22606;SDS011;11470;20.968;105.834;2022-07-23T16:06:51;6.20;;;3.88;;
22606;SDS011;11470;20.968;105.834;2022-07-23T16:11:56;5.80;;;3.00;;
22606;SDS011;11470;20.968;105.834;2022-07-23T16:17:02;5.88;;;3.13;;
22606;SDS011;11470;20.968;105.834;2022-07-23T16:22:08;11.15;;;5.05;;
22606;SDS011;11470;20.968;105.834;2022-07-23T16:27:14;6.97;;;3.72;;
22606;SDS011;11470;20.968;105.834;2022-07-23T16:32:20;8.15;;;3.22;;
22606;SDS011;11470;20.968;105.834;2022-07-23T16:37:25;10.32;;;4.72;;
22606;SDS011;11470;20.968;105.834;2022-07-23T16:47:36;7.88;;;3.97;;
22606;SDS011;11470;20.968;105.834;2022-07-23T16:52:42;4.47;;;3.38;;
22606;SDS011;11470;20.968;105.834;2022-07-23T16:57:47;7.53;;;3.60;;
22606;SDS011;11470;20.968;105.834;2022-07-23T17:02:52;5.77;;;2.83;;
22606;SDS011;11470;20.968;105.834;2022-07-23T17:13:03;6.50;;;3.40;;
22606;SDS011;11470;20.968;105.834;2022-07-23T17:23:16;6.00;;;3.50;;
22606;SDS011;11470;20.968;105.834;2022-07-23T17:28:21;6.35;;;3.25;;
22606;SDS011;11470;20.968;105.834;2022-07-23T17:33:26;6.88;;;3.45;;
22606;SDS011;11470;20.968;105.834;2022-07-23T17:38:32;7.22;;;3.83;;
22606;SDS011;11470;20.968;105.834;2022-07-23T17:43:38;8.23;;;4.43;;
22606;SDS011;11470;20.968;105.834;2022-07-23T17:48:43;8.10;;;3.45;;
22606;SDS011;11470;20.968;105.834;2022-07-23T17:53:48;5.43;;;3.17;;
22606;SDS011;11470;20.968;105.834;2022-07-23T17:58:54;5.30;;;3.03;;
22606;SDS011;11470;20.968;105.834;2022-07-23T18:03:59;5.70;;;3.72;;
22606;SDS011;11470;20.968;105.834;2022-07-23T18:09:04;6.95;;;4.65;;
22606;SDS011;11470;20.968;105.834;2022-07-23T18:14:10;4.63;;;3.38;;
22606;SDS011;11470;20.968;105.834;2022-07-23T18:19:16;11.73;;;5.03;;
22606;SDS011;11470;20.968;105.834;2022-07-23T18:24:21;8.07;;;4.00;;
22606;SDS011;11470;20.968;105.834;2022-07-23T18:29:28;8.38;;;4.47;;
22606;SDS011;11470;20.968;105.834;2022-07-23T18:34:33;10.30;;;5.85;;
22606;SDS011;11470;20.968;105.834;2022-07-23T18:39:38;9.80;;;4.80;;
22606;SDS011;11470;20.968;105.834;2022-07-23T18:44:45;7.07;;;4.80;;
22606;SDS011;11470;20.968;105.834;2022-07-23T18:49:51;10.90;;;5.53;;
22606;SDS011;11470;20.968;105.834;2022-07-23T18:54:56;7.87;;;4.93;;
22606;SDS011;11470;20.968;105.834;2022-07-23T19:00:03;12.10;;;5.43;;
22606;SDS011;11470;20.968;105.834;2022-07-23T19:05:10;9.85;;;5.05;;
22606;SDS011;11470;20.968;105.834;2022-07-23T19:10:15;9.57;;;5.47;;
22606;SDS011;11470;20.968;105.834;2022-07-23T19:15:20;8.15;;;4.18;;
22606;SDS011;11470;20.968;105.834;2022-07-23T19:20:26;11.77;;;4.72;;
22606;SDS011;11470;20.968;105.834;2022-07-23T19:25:31;9.15;;;4.82;;
22606;SDS011;11470;20.968;105.834;2022-07-23T19:30:37;7.72;;;4.85;;
22606;SDS011;11470;20.968;105.834;2022-07-23T19:35:43;12.30;;;4.97;;
22606;SDS011;11470;20.968;105.834;2022-07-23T19:40:51;7.43;;;4.13;;
22606;SDS011;11470;20.968;105.834;2022-07-23T19:45:56;11.88;;;5.07;;
22606;SDS011;11470;20.968;105.834;2022-07-23T19:51:01;10.85;;;3.78;;
22606;SDS011;11470;20.968;105.834;2022-07-23T19:56:07;7.57;;;4.15;;
22606;SDS011;11470;20.968;105.834;2022-07-23T20:01:12;10.40;;;4.93;;
22606;SDS011;11470;20.968;105.834;2022-07-23T20:06:18;11.77;;;5.15;;
22606;SDS011;11470;20.968;105.834;2022-07-23T20:11:24;17.80;;;6.13;;
22606;SDS011;11470;20.968;105.834;2022-07-23T20:16:31;14.80;;;5.32;;
22606;SDS011;11470;20.968;105.834;2022-07-23T20:21:36;13.10;;;5.57;;
22606;SDS011;11470;20.968;105.834;2022-07-23T20:26:49;15.90;;;5.70;;
22606;SDS011;11470;20.968;105.834;2022-07-23T20:31:56;10.05;;;4.55;;
22606;SDS011;11470;20.968;105.834;2022-07-23T20:37:01;10.23;;;4.70;;
22606;SDS011;11470;20.968;105.834;2022-07-23T20:42:07;12.63;;;5.22;;
22606;SDS011;11470;20.968;105.834;2022-07-23T20:47:12;17.45;;;5.93;;
22606;SDS011;11470;20.968;105.834;2022-07-23T20:52:18;12.07;;;5.78;;
22606;SDS011;11470;20.968;105.834;2022-07-23T20:57:25;9.23;;;4.40;;
22606;SDS011;11470;20.968;105.834;2022-07-23T21:02:32;14.93;;;6.63;;
22606;SDS011;11470;20.968;105.834;2022-07-23T21:07:38;18.10;;;6.45;;
22606;SDS011;11470;20.968;105.834;2022-07-23T21:12:44;14.25;;;6.93;;
22606;SDS011;11470;20.968;105.834;2022-07-23T21:17:51;14.65;;;6.38;;
22606;SDS011;11470;20.968;105.834;2022-07-23T21:22:56;14.20;;;7.68;;
22606;SDS011;11470;20.968;105.834;2022-07-23T21:28:02;12.38;;;6.90;;
22606;SDS011;11470;20.968;105.834;2022-07-23T21:33:07;17.48;;;8.20;;
22606;SDS011;11470;20.968;105.834;2022-07-23T21:38:13;13.02;;;6.70;;
22606;SDS011;11470;20.968;105.834;2022-07-23T21:43:18;19.00;;;7.82;;
22606;SDS011;11470;20.968;105.834;2022-07-23T21:48:26;14.05;;;7.28;;
22606;SDS011;11470;20.968;105.834;2022-07-23T21:53:31;14.23;;;7.40;;
22606;SDS011;11470;20.968;105.834;2022-07-23T21:58:37;15.95;;;9.00;;
22606;SDS011;11470;20.968;105.834;2022-07-23T22:03:42;16.88;;;8.77;;
22606;SDS011;11470;20.968;105.834;2022-07-23T22:08:48;20.25;;;9.52;;
22606;SDS011;11470;20.968;105.834;2022-07-23T22:13:53;16.85;;;8.70;;
22606;SDS011;11470;20.968;105.834;2022-07-23T22:18:59;18.63;;;9.75;;
22606;SDS011;11470;20.968;105.834;2022-07-23T22:24:05;21.75;;;10.38;;
22606;SDS011;11470;20.968;105.834;2022-07-23T22:29:11;22.48;;;10.65;;
22606;SDS011;11470;20.968;105.834;2022-07-23T22:34:23;21.20;;;11.32;;
22606;SDS011;11470;20.968;105.834;2022-07-23T22:39:29;22.13;;;11.20;;
22606;SDS011;11470;20.968;105.834;2022-07-23T22:44:34;17.40;;;9.38;;
22606;SDS011;11470;20.968;105.834;2022-07-23T22:49:39;19.50;;;10.68;;
22606;SDS011;11470;20.968;105.834;2022-07-23T22:54:47;24.00;;;10.77;;
22606;SDS011;11470;20.968;105.834;2022-07-23T22:59:52;18.33;;;10.82;;
22606;SDS011;11470;20.968;105.834;2022-07-23T23:04:58;18.98;;;10.98;;
22606;SDS011;11470;20.968;105.834;2022-07-23T23:10:04;22.35;;;12.10;;
22606;SDS011;11470;20.968;105.834;2022-07-23T23:20:14;17.88;;;9.98;;
22606;SDS011;11470;20.968;105.834;2022-07-23T23:30:24;17.38;;;10.88;;
22606;SDS011;11470;20.968;105.834;2022-07-23T23:35:29;19.60;;;10.93;;
22606;SDS011;11470;20.968;105.834;2022-07-23T23:40:34;21.27;;;10.83;;
22606;SDS011;11470;20.968;105.834;2022-07-23T23:45:40;17.90;;;9.20;;
22606;SDS011;11470;20.968;105.834;2022-07-23T23:50:45;21.13;;;11.55;;
22606;SDS011;11470;20.968;105.834;2022-07-23T23:55:51;10.50;;;6.97;;
